Latest Weather Observations for Nuriootpa

IDS60901

Issued at 2:41 pm CST Monday 27 May 2019 (issued every 10 minutes, with the page automatically refreshed every 10 minutes)

About weather observations | Map of Adelaide area stations | Latest observations for Adelaide area | Other Formats
Station Details ID: 023373 Name: NURIOOTPA PIRSA Lat: -34.48 Lon: 139.01 Height: 275.0 m
Data from the previous 72 hours. | See also: Recent months at Nuriootpa
Date/Time
CST
Temp
°C
App
Temp
°C
Dew
Point
°C
Rel
Hum
%
Delta-T
°C
Wind Press
QNH
hPa
Press
MSL
hPa
Rain since
9am
mm
Dir  Spd
km/h
Gust
km/h
Spd
kts
Gust
kts
27/02:30pm 13.1 6.5 4.2 54 4.1 WSW 28 44 15 24 1019.6 1019.6 0.0
27/02:00pm 12.2 5.8 3.0 53 4.1 WSW 26 39 14 21 1019.6 1019.6 0.0
27/01:31pm 12.3 5.2 3.7 55 3.9 WSW 30 48 16 26 1019.5 1019.5 0.0
27/01:30pm 12.3 4.8 3.7 55 3.9 WSW 32 48 17 26 1019.5 1019.5 0.0
27/01:22pm 12.4 5.3 3.8 55 3.9 W 30 48 16 26 1019.4 1019.4 0.0
27/01:00pm 12.3 6.1 4.5 59 3.6 WSW 26 37 14 20 1019.6 1019.6 0.0
27/12:30pm 12.0 5.1 4.4 59 3.5 WSW 30 43 16 23 1019.7 1019.7 0.0
27/12:07pm 11.9 5.3 4.0 58 3.6 WSW 28 46 15 25 1019.9 1019.9 0.0
27/12:00pm 11.9 5.7 4.2 59 3.5 WSW 26 39 14 21 1020.0 1020.0 0.0
27/11:30am 12.6 4.9 3.5 54 4.1 WSW 33 46 18 25 1020.0 1020.0 0.0
27/11:10am 12.4 4.8 2.7 51 4.3 WSW 32 52 17 28 1020.1 1020.1 0.0
27/11:00am 12.0 4.9 3.6 56 3.8 WSW 30 44 16 24 1020.2 1020.2 0.0
27/10:30am 11.5 4.2 4.3 61 3.3 WSW 32 46 17 25 1020.1 1020.1 0.0
27/10:01am 11.4 4.4 3.9 60 3.4 WSW 30 48 16 26 1020.0 1020.0 0.0
27/10:00am 11.4 4.0 3.9 60 3.4 WSW 32 48 17 26 1020.0 1020.0 0.0
27/09:41am 11.1 4.0 3.5 59 3.4 WSW 30 48 16 26 1019.9 1019.9 0.0
27/09:30am 11.3 5.0 4.0 61 3.3 WSW 26 37 14 20 1019.8 1019.8 0.0
27/09:00am 10.6 4.8 4.2 64 2.9 WSW 24 37 13 20 1019.6 1019.6 6.6
27/08:30am 10.0 5.1 5.0 71 2.3 WSW 20 32 11 17 1019.1 1019.1 6.6
27/08:00am 9.4 4.6 4.8 73 2.1 WSW 19 26 10 14 1018.7 1018.7 6.6
27/07:30am 9.1 3.7 4.7 74 2.0 WSW 22 33 12 18 1018.2 1018.1 6.6
27/07:00am 9.1 4.3 4.9 75 1.9 WSW 19 28 10 15 1017.7 1017.7 6.6
27/06:30am 9.5 3.4 4.6 71 2.2 WSW 26 37 14 20 1017.2 1017.2 6.6
27/06:00am 9.4 2.9 4.5 71 2.2 WSW 28 41 15 22 1016.8 1016.8 6.6
27/05:30am 9.0 3.7 5.0 76 1.8 WSW 22 35 12 19 1016.4 1016.4 6.6
27/05:00am 8.8 3.6 7.1 89 0.8 W 24 37 13 20 1016.2 1016.2 6.6
27/04:30am 9.0 2.6 7.1 88 0.9 WSW 30 43 16 23 1015.9 1015.9 6.6
27/04:00am 9.1 1.8 7.2 88 0.9 W 35 57 19 31 1015.5 1015.5 6.6
27/03:51am 9.6 2.7 6.6 81 1.4 W 32 57 17 31 1015.5 1015.5 6.6
27/03:30am 9.7 2.6 6.5 80 1.5 W 33 50 18 27 1015.4 1015.3 6.6
27/03:25am 9.8 2.9 6.4 79 1.6 W 32 50 17 27 1015.4 1015.3 6.6
27/03:00am 9.8 4.1 8.4 91 0.7 W 28 39 15 21 1015.4 1015.3 6.6
27/02:30am 9.7 3.3 8.7 93 0.5 WSW 32 43 17 23 1015.3 1015.2 6.6
27/02:14am 9.8 3.5 9.0 95 0.4 WSW 32 50 17 27 1015.4 1015.3 6.6
27/02:00am 9.9 3.4 9.1 95 0.4 WSW 33 50 18 27 1015.2 1015.1 6.6
27/01:55am 10.0 3.8 9.4 96 0.3 W 32 50 17 27 1015.2 1015.1 6.4
27/01:30am 9.8 3.4 9.4 97 0.2 WSW 33 48 18 26 1015.0 1014.9 6.4
27/01:00am 10.5 4.3 9.9 96 0.3 WSW 33 54 18 29 1014.7 1014.6 5.8
27/12:30am 10.6 3.7 10.2 97 0.2 W 37 57 20 31 1014.8 1014.7 5.0
27/12:16am 10.7 4.6 10.3 97 0.2 W 33 54 18 29 1014.8 1014.7 5.0
27/12:00am 10.8 4.3 10.4 97 0.2 W 35 52 19 28 1014.8 1014.7 5.0
 
Date/Time
CST
Temp
°C
App
Temp
°C
Dew
Point
°C
Rel
Hum
%
Delta-T
°C
Wind Press
QNH
hPa
Press
MSL
hPa
Rain since
9am
mm
Dir  Spd
km/h
Gust
km/h
Spd
kts
Gust
kts
26/11:30pm 10.8 4.9 10.4 97 0.2 W 32 56 17 30 1014.9 1014.8 5.0
26/11:00pm 10.9 5.0 10.3 96 0.3 WNW 32 57 17 31 1014.9 1014.8 2.6
26/10:31pm 10.8 4.2 10.0 95 0.4 W 35 54 19 29 1015.2 1015.1 2.6
26/10:30pm 10.8 4.6 10.0 95 0.4 W 33 44 18 24 1015.2 1015.1 2.6
26/10:07pm 10.7 4.6 9.9 95 0.4 WNW 32 50 17 27 1015.4 1015.3 2.0
26/10:00pm 10.7 4.0 9.7 93 0.5 WNW 35 50 19 27 1015.3 1015.2 1.6
26/09:30pm 10.7 4.3 9.5 92 0.6 WNW 33 44 18 24 1015.4 1015.3 1.6
26/09:06pm 11.0 4.3 9.6 91 0.7 WNW 35 54 19 29 1015.4 1015.3 1.6
26/09:00pm 10.8 4.5 9.6 92 0.6 WNW 33 44 18 24 1015.5 1015.5 1.6
26/08:30pm 10.9 3.8 9.5 91 0.7 WNW 37 50 20 27 1015.4 1015.3 1.6
26/08:00pm 10.8 2.6 9.8 93 0.5 WNW 43 56 23 30 1015.3 1015.2 1.6
26/07:30pm 10.8 4.1 9.6 92 0.6 WNW 35 54 19 29 1015.4 1015.3 1.6
26/07:10pm 10.8 3.3 9.6 92 0.6 WNW 39 57 21 31 1015.1 1015.0 1.6
26/07:00pm 10.7 3.6 9.7 93 0.5 WNW 37 54 20 29 1015.1 1015.0 1.6
26/06:54pm 10.8 4.1 9.8 93 0.5 WNW 35 54 19 29 1015.2 1015.1 1.6
26/06:30pm 10.8 3.7 9.4 91 0.7 WNW 37 50 20 27 1015.2 1015.1 1.6
26/06:00pm 11.0 4.3 9.8 92 0.6 WNW 35 48 19 26 1015.4 1015.3 1.6
26/05:30pm 11.4 5.2 9.2 86 1.1 WNW 32 46 17 25 1015.4 1015.3 1.6
26/05:00pm 11.7 5.2 8.9 83 1.4 WNW 33 52 18 28 1015.5 1015.5 1.6
26/04:31pm 12.4 5.9 9.1 80 1.7 WNW 33 52 18 28 1015.6 1015.6 1.6
26/04:30pm 12.4 5.6 9.1 80 1.7 WNW 35 52 19 28 1015.6 1015.6 1.6
26/04:00pm 12.8 6.2 8.4 74 2.2 WNW 33 54 18 29 1015.6 1015.6 1.6
26/03:30pm 12.9 6.6 9.0 77 2.0 WNW 32 48 17 26 1015.8 1015.8 1.6
26/03:10pm 12.7 6.1 8.5 75 2.1 WNW 33 59 18 32 1015.7 1015.7 1.6
26/03:00pm 12.4 5.9 8.9 79 1.8 WNW 33 48 18 26 1015.8 1015.8 1.6
26/02:50pm 11.9 5.9 10.0 88 1.0 WNW 32 63 17 34 1015.8 1015.8 1.6
26/02:30pm 12.5 6.0 10.4 87 1.1 WNW 35 46 19 25 1015.9 1015.9 1.2
26/02:00pm 12.9 7.8 10.6 86 1.2 WNW 28 46 15 25 1016.1 1016.1 1.2
26/01:31pm 12.9 7.3 10.2 84 1.4 WNW 30 50 16 27 1016.4 1016.4 1.2
26/01:30pm 12.9 7.8 10.6 86 1.2 WNW 28 44 15 24 1016.4 1016.4 1.2
26/01:00pm 12.0 7.4 10.9 93 0.6 WNW 26 39 14 21 1017.0 1017.0 1.2
26/12:30pm 11.8 6.7 10.5 92 0.7 WNW 28 39 15 21 1017.4 1017.4 0.6
26/12:04pm 11.4 6.1 10.0 91 0.7 WNW 28 50 15 27 1017.8 1017.8 0.6
26/12:00pm 11.7 7.6 10.0 89 0.9 WNW 22 35 12 19 1017.9 1017.9 0.6
26/11:30am 11.1 6.6 9.9 92 0.6 WNW 24 35 13 19 1018.6 1018.6 0.4
26/11:00am 11.1 6.8 9.5 90 0.8 WNW 22 35 12 19 1019.0 1019.0 0.0
26/10:30am 11.5 6.6 8.3 81 1.6 WNW 24 33 13 18 1019.1 1019.1 0.0
26/10:00am 11.5 6.3 7.2 75 2.1 WNW 24 33 13 18 1019.3 1019.3 0.0
26/09:30am 11.5 6.7 7.4 76 2.0 WNW 22 32 12 17 1019.1 1019.1 0.0
26/09:00am 10.9 6.9 8.1 83 1.4 NW 19 28 10 15 1019.1 1019.1 7.4
26/08:30am 9.9 6.2 7.8 87 1.0 NW 17 24 9 13 1019.0 1019.0 7.4
26/08:00am 9.7 6.1 8.3 91 0.7 WNW 17 24 9 13 1018.8 1018.8 7.4
26/07:30am 9.5 6.2 8.1 91 0.7 NW 15 20 8 11 1018.7 1018.7 7.4
26/07:00am 8.6 5.1 7.3 91 0.6 NW 15 19 8 10 1018.5 1018.4 7.4
26/06:30am 8.5 5.8 7.5 93 0.5 NW 11 17 6 9 1018.6 1018.6 7.4
26/06:00am 9.0 6.0 7.5 90 0.7 NW 13 19 7 10 1018.5 1018.4 7.4
26/05:30am 8.7 5.6 7.4 91 0.6 WNW 13 17 7 9 1018.5 1018.4 7.4
26/05:00am 8.7 4.9 7.4 91 0.6 WNW 17 20 9 11 1018.4 1018.3 7.4
26/04:30am 8.5 5.5 7.5 93 0.5 WNW 13 17 7 9 1018.5 1018.4 7.4
26/04:00am 8.4 5.3 7.4 93 0.5 WNW 13 19 7 10 1018.6 1018.6 7.4
26/03:30am 8.5 5.0 7.2 91 0.6 W 15 19 8 10 1018.6 1018.6 7.4
26/03:00am 8.7 5.2 7.2 90 0.7 WNW 15 20 8 11 1018.7 1018.7 7.4
26/02:30am 8.9 5.4 7.4 90 0.7 WNW 15 20 8 11 1018.5 1018.4 7.4
26/02:00am 9.0 6.1 8.0 93 0.5 W 13 19 7 10 1018.7 1018.7 7.4
26/01:30am 9.0 5.7 8.0 93 0.5 WNW 15 20 8 11 1018.7 1018.7 7.4
26/01:00am 9.6 6.8 8.4 92 0.6 W 13 19 7 10 1018.9 1018.9 7.4
26/12:30am 9.7 6.9 8.5 92 0.6 W 13 22 7 12 1018.7 1018.7 7.4
26/12:00am 9.4 6.9 8.4 93 0.5 WNW 11 15 6 8 1018.9 1018.9 7.4
 
Date/Time
CST
Temp
°C
App
Temp
°C
Dew
Point
°C
Rel
Hum
%
Delta-T
°C
Wind Press
QNH
hPa
Press
MSL
hPa
Rain since
9am
mm
Dir  Spd
km/h
Gust
km/h
Spd
kts
Gust
kts
25/11:30pm 9.6 7.2 8.6 93 0.5 WNW 11 17 6 9 1019.1 1019.1 7.4
25/11:00pm 10.1 6.2 8.7 91 0.7 W 19 24 10 13 1019.0 1019.0 7.4
25/10:30pm 10.1 7.0 8.7 91 0.7 W 15 20 8 11 1019.2 1019.2 7.4
25/10:00pm 10.2 8.2 8.8 91 0.7 W 9 13 5 7 1019.4 1019.4 7.4
25/09:30pm 10.4 7.6 8.6 89 0.9 W 13 32 7 17 1019.3 1019.3 7.4
25/09:00pm 10.6 7.0 8.4 86 1.1 W 17 24 9 13 1019.0 1019.0 7.0
25/08:30pm 10.8 6.6 8.2 84 1.3 W 20 28 11 15 1018.6 1018.6 7.0
25/08:00pm 10.6 7.2 9.0 90 0.8 W 17 24 9 13 1018.5 1018.4 7.0
25/07:30pm 10.9 6.7 8.3 84 1.3 W 20 28 11 15 1017.8 1017.8 7.0
25/07:00pm 11.1 7.2 9.3 89 0.9 WSW 20 35 11 19 1017.6 1017.6 7.0
25/06:30pm 11.7 7.7 10.4 92 0.7 W 22 33 12 18 1017.1 1017.1 7.0
25/06:00pm 11.8 7.5 10.7 93 0.6 W 24 33 13 18 1016.3 1016.3 7.0
25/05:30pm 12.0 8.6 11.4 96 0.3 W 20 28 11 15 1016.1 1016.1 7.0
25/05:00pm 12.2 8.4 11.3 94 0.5 W 22 32 12 17 1016.0 1016.0 7.0
25/04:30pm 11.9 8.1 11.1 95 0.4 WNW 22 32 12 17 1015.7 1015.7 7.0
25/04:00pm 11.9 9.4 11.1 95 0.4 W 15 24 8 13 1015.8 1015.8 7.0
25/03:30pm 11.2 6.7 10.2 94 0.5 SW 24 33 13 18 1015.7 1015.7 7.0
25/03:00pm 12.4 9.2 11.1 92 0.7 WSW 19 28 10 15 1015.1 1015.0 5.2
25/02:30pm 12.0 8.4 10.5 90 0.8 WSW 20 28 11 15 1015.2 1015.1 3.6
25/02:00pm 13.6 9.0 11.2 85 1.3 WNW 26 35 14 19 1015.3 1015.2 2.8
25/01:30pm 14.1 9.4 11.9 86 1.2 WNW 28 41 15 22 1015.2 1015.1 2.8
25/01:00pm 13.3 7.8 11.8 91 0.8 WNW 32 46 17 25 1015.3 1015.2 2.8
25/12:30pm 14.0 8.7 11.4 84 1.4 WNW 30 50 16 27 1015.6 1015.6 1.8
25/12:28pm 14.2 8.8 10.8 80 1.8 WNW 30 50 16 27 1015.5 1015.5 1.4
25/12:00pm 15.4 10.9 11.4 77 2.2 WNW 26 39 14 21 1015.9 1015.9 0.8
25/11:30am 15.1 9.7 11.0 76 2.2 WNW 30 41 16 22 1016.4 1016.4 0.8
25/11:00am 15.1 11.1 11.8 81 1.8 NW 24 35 13 19 1016.5 1016.5 0.8
25/10:30am 14.4 9.7 12.0 85 1.3 WNW 28 39 15 21 1017.0 1017.0 0.8
25/10:00am 13.1 9.5 12.0 93 0.6 NW 22 33 12 18 1017.2 1017.2 0.8
25/09:30am 12.8 10.5 11.7 93 0.6 NW 15 24 8 13 1017.4 1017.4 0.6
25/09:00am 13.1 9.6 10.8 86 1.2 NW 20 33 11 18 1017.4 1017.4 0.0
25/08:30am 13.0 9.6 11.1 88 1.0 NW 20 28 11 15 1017.2 1017.2 0.0
25/08:00am 12.4 9.0 10.7 89 0.9 NW 19 26 10 14 1017.3 1017.3 0.0
25/07:30am 11.9 8.4 11.0 94 0.5 NW 20 28 11 15 1017.1 1017.1 0.0
25/07:00am 12.1 8.9 11.2 94 0.5 NW 19 24 10 13 1017.0 1017.0 0.0
25/06:30am 12.0 8.6 11.1 94 0.5 NW 20 33 11 18 1016.9 1016.9 0.0
25/06:00am 11.9 8.4 10.8 93 0.6 NW 20 32 11 17 1016.8 1016.8 0.0
25/05:30am 11.9 8.3 10.6 92 0.7 WNW 20 28 11 15 1017.0 1017.0 0.0
25/05:00am 12.1 8.7 10.6 90 0.8 WNW 19 26 10 14 1017.1 1017.1 0.0
25/04:30am 11.8 8.8 10.5 92 0.7 WNW 17 24 9 13 1017.1 1017.1 0.0
25/04:00am 11.1 8.7 10.1 94 0.5 WNW 13 17 7 9 1016.9 1016.9 0.0
25/03:30am 11.2 8.7 9.8 91 0.7 WNW 13 17 7 9 1017.0 1017.0 0.0
25/03:00am 11.4 9.0 10.0 91 0.7 WNW 13 20 7 11 1017.3 1017.3 0.0
25/02:30am 11.4 9.0 10.0 91 0.7 WNW 13 17 7 9 1017.4 1017.4 0.0
25/02:00am 11.6 8.8 10.1 90 0.8 WNW 15 20 8 11 1017.5 1017.5 0.0
25/01:30am 11.3 8.9 10.1 92 0.6 WNW 13 17 7 9 1017.6 1017.6 0.0
25/01:00am 11.4 9.1 10.6 95 0.4 WNW 13 17 7 9 1017.9 1017.9 0.0
25/12:30am 11.9 9.5 11.5 97 0.2 W 15 20 8 11 1018.2 1018.1 0.0
25/12:00am 12.5 10.7 12.1 97 0.2 W 13 17 7 9 1018.2 1018.1 0.0
 
Date/Time
CST
Temp
°C
App
Temp
°C
Dew
Point
°C
Rel
Hum
%
Delta-T
°C
Wind Press
QNH
hPa
Press
MSL
hPa
Rain since
9am
mm
Dir  Spd
km/h
Gust
km/h
Spd
kts
Gust
kts
24/11:30pm 12.6 10.4 12.2 97 0.2 W 15 20 8 11 1018.2 1018.1 0.0
24/11:00pm 12.6 10.7 11.9 95 0.4 W 13 15 7 8 1018.3 1018.2 0.0
24/10:30pm 13.2 11.5 12.5 95 0.4 W 13 15 7 8 1018.5 1018.4 0.0
24/10:00pm 13.5 11.8 12.4 93 0.6 W 13 17 7 9 1018.7 1018.7 0.0
24/09:30pm 13.9 11.9 12.6 92 0.7 W 15 20 8 11 1018.7 1018.7 0.0
24/09:00pm 13.6 11.9 12.5 93 0.6 WNW 13 17 7 9 1018.8 1018.8 0.0
24/08:30pm 11.0 10.3 10.0 93 0.5 WNW 4 7 2 4 1018.7 1018.7 0.0
24/08:00pm 12.4 11.4 11.1 92 0.7 WNW 7 9 4 5 1018.6 1018.6 0.0
24/07:30pm 13.1 13.7 11.8 92 0.7 CALM 0 0 0 0 1018.5 1018.4 0.0
24/07:00pm 13.7 12.6 11.9 89 1.0 W 9 11 5 6 1018.1 1018.0 0.0
24/06:30pm 14.5 13.4 12.1 85 1.3 W 9 11 5 6 1017.9 1017.9 0.0
24/06:00pm 15.2 13.1 12.3 83 1.6 WSW 15 22 8 12 1017.6 1017.6 0.0
24/05:30pm 15.9 13.5 12.5 80 1.9 WSW 17 24 9 13 1017.5 1017.5 0.0
24/05:00pm 17.0 13.9 12.3 74 2.6 W 20 28 11 15 1017.3 1017.3 0.0
24/04:30pm 17.9 13.8 12.6 71 3.0 WSW 26 37 14 20 1017.1 1017.1 0.0
24/04:00pm 19.7 14.8 11.4 58 4.6 W 28 37 15 20 1016.7 1016.7 0.0
24/03:30pm 21.3 15.1 8.0 42 7.0 W 30 44 16 24 1016.6 1016.6 0.0
24/03:05pm 22.0 15.2 5.3 33 8.4 WNW 30 48 16 26 1016.5 1016.5 0.0
24/03:00pm 22.0 14.8 4.8 32 8.6 WNW 32 48 17 26 1016.5 1016.5 0.0

Latest Capital City Observations: Canberra | Sydney | Melbourne | Brisbane | Adelaide | Perth | Hobart | Darwin

Other formats

Comma delimited format used in spreadsheet applications
http://www.bom.gov.au/fwo/IDS60901/IDS60901.94681.axf

JavaScript Object Notation format (JSON) in row-major order
http://www.bom.gov.au/fwo/IDS60901/IDS60901.94681.json

Data quality

Most of these data are generated automatically and are frequently updated. Quality checks on data are not normally performed. It is possible for incorrect values to appear. Refer to information at About Latest Weather Observations and please check the disclaimer before using these data.